sensor_id;sensor_type;location;lat;lon;timestamp;temperature;humidity
7814;DHT22;3952;48.364;16.022;2023-07-13T00:00:37;21.10;99.90
7814;DHT22;3952;48.364;16.022;2023-07-13T00:03:05;21.10;99.90
7814;DHT22;3952;48.364;16.022;2023-07-13T00:05:32;21.20;99.90
7814;DHT22;3952;48.364;16.022;2023-07-13T00:08:00;21.20;99.90
7814;DHT22;3952;48.364;16.022;2023-07-13T00:10:27;21.10;99.90
7814;DHT22;3952;48.364;16.022;2023-07-13T00:12:54;21.10;99.90
7814;DHT22;3952;48.364;16.022;2023-07-13T00:15:25;21.10;99.90
7814;DHT22;3952;48.364;16.022;2023-07-13T00:17:54;21.10;99.90
7814;DHT22;3952;48.364;16.022;2023-07-13T00:20:23;21.10;99.90
7814;DHT22;3952;48.364;16.022;2023-07-13T00:22:51;21.10;99.90
7814;DHT22;3952;48.364;16.022;2023-07-13T00:25:19;21.10;99.90
7814;DHT22;3952;48.364;16.022;2023-07-13T00:27:47;21.00;99.90
7814;DHT22;3952;48.364;16.022;2023-07-13T00:30:15;21.00;99.90
7814;DHT22;3952;48.364;16.022;2023-07-13T00:32:44;21.00;99.90
7814;DHT22;3952;48.364;16.022;2023-07-13T00:35:13;21.00;99.90
7814;DHT22;3952;48.364;16.022;2023-07-13T00:37:41;21.00;99.90
7814;DHT22;3952;48.364;16.022;2023-07-13T00:40:11;21.00;99.90
7814;DHT22;3952;48.364;16.022;2023-07-13T00:42:39;21.00;99.90
7814;DHT22;3952;48.364;16.022;2023-07-13T00:47:51;21.00;99.90
7814;DHT22;3952;48.364;16.022;2023-07-13T00:50:19;21.00;99.90
7814;DHT22;3952;48.364;16.022;2023-07-13T00:52:53;21.00;99.90
7814;DHT22;3952;48.364;16.022;2023-07-13T00:55:23;21.00;99.90
7814;DHT22;3952;48.364;16.022;2023-07-13T00:57:50;20.90;99.90
7814;DHT22;3952;48.364;16.022;2023-07-13T01:00:19;20.90;99.90
7814;DHT22;3952;48.364;16.022;2023-07-13T01:02:47;20.90;99.90
7814;DHT22;3952;48.364;16.022;2023-07-13T01:05:20;20.90;99.90
7814;DHT22;3952;48.364;16.022;2023-07-13T01:07:50;20.80;99.90
7814;DHT22;3952;48.364;16.022;2023-07-13T01:10:36;20.80;99.90
7814;DHT22;3952;48.364;16.022;2023-07-13T01:13:06;20.70;99.90
7814;DHT22;3952;48.364;16.022;2023-07-13T01:15:39;20.70;99.90
7814;DHT22;3952;48.364;16.022;2023-07-13T01:18:09;20.70;99.90
7814;DHT22;3952;48.364;16.022;2023-07-13T01:20:38;20.70;99.90
7814;DHT22;3952;48.364;16.022;2023-07-13T01:23:09;20.60;99.90
7814;DHT22;3952;48.364;16.022;2023-07-13T01:25:37;20.60;99.90
7814;DHT22;3952;48.364;16.022;2023-07-13T01:28:06;20.60;99.90
7814;DHT22;3952;48.364;16.022;2023-07-13T01:30:34;20.60;99.90
7814;DHT22;3952;48.364;16.022;2023-07-13T01:33:02;20.60;99.90
7814;DHT22;3952;48.364;16.022;2023-07-13T01:35:30;20.60;99.90
7814;DHT22;3952;48.364;16.022;2023-07-13T01:37:57;20.00;99.90
7814;DHT22;3952;48.364;16.022;2023-07-13T01:40:28;20.60;99.90
7814;DHT22;3952;48.364;16.022;2023-07-13T01:42:55;20.60;99.90
7814;DHT22;3952;48.364;16.022;2023-07-13T01:45:22;20.60;99.90
7814;DHT22;3952;48.364;16.022;2023-07-13T01:47:49;20.60;99.90
7814;DHT22;3952;48.364;16.022;2023-07-13T01:50:17;20.60;99.90
7814;DHT22;3952;48.364;16.022;2023-07-13T01:52:44;20.60;99.90
7814;DHT22;3952;48.364;16.022;2023-07-13T01:55:11;20.60;99.90
7814;DHT22;3952;48.364;16.022;2023-07-13T01:57:41;20.60;99.90
7814;DHT22;3952;48.364;16.022;2023-07-13T02:00:09;20.50;99.90
7814;DHT22;3952;48.364;16.022;2023-07-13T02:02:37;20.60;99.90
7814;DHT22;3952;48.364;16.022;2023-07-13T02:05:05;20.60;99.90
7814;DHT22;3952;48.364;16.022;2023-07-13T02:07:32;20.60;99.90
7814;DHT22;3952;48.364;16.022;2023-07-13T02:10:00;20.60;99.90
7814;DHT22;3952;48.364;16.022;2023-07-13T02:12:27;20.50;99.90
7814;DHT22;3952;48.364;16.022;2023-07-13T02:18:03;20.50;99.90
7814;DHT22;3952;48.364;16.022;2023-07-13T02:20:30;20.50;99.90
7814;DHT22;3952;48.364;16.022;2023-07-13T02:22:57;20.50;99.90
7814;DHT22;3952;48.364;16.022;2023-07-13T02:25:24;20.50;99.90
7814;DHT22;3952;48.364;16.022;2023-07-13T02:27:52;20.50;99.90
7814;DHT22;3952;48.364;16.022;2023-07-13T02:30:19;20.50;99.90
7814;DHT22;3952;48.364;16.022;2023-07-13T02:32:48;20.50;99.90
7814;DHT22;3952;48.364;16.022;2023-07-13T02:35:17;20.50;99.90
7814;DHT22;3952;48.364;16.022;2023-07-13T02:37:44;20.60;99.90
7814;DHT22;3952;48.364;16.022;2023-07-13T02:40:11;20.60;99.90
7814;DHT22;3952;48.364;16.022;2023-07-13T02:42:39;20.60;99.90
7814;DHT22;3952;48.364;16.022;2023-07-13T02:45:07;20.60;99.90
7814;DHT22;3952;48.364;16.022;2023-07-13T02:47:35;20.70;99.90
7814;DHT22;3952;48.364;16.022;2023-07-13T02:50:03;20.70;99.90
7814;DHT22;3952;48.364;16.022;2023-07-13T02:52:32;20.70;99.90
7814;DHT22;3952;48.364;16.022;2023-07-13T02:54:59;20.80;99.90
7814;DHT22;3952;48.364;16.022;2023-07-13T02:57:26;20.80;99.90
7814;DHT22;3952;48.364;16.022;2023-07-13T02:59:54;20.80;99.90
7814;DHT22;3952;48.364;16.022;2023-07-13T03:02:21;20.80;99.90
7814;DHT22;3952;48.364;16.022;2023-07-13T03:04:48;20.90;99.90
7814;DHT22;3952;48.364;16.022;2023-07-13T03:07:16;20.90;99.90
7814;DHT22;3952;48.364;16.022;2023-07-13T03:09:44;20.90;99.90
7814;DHT22;3952;48.364;16.022;2023-07-13T03:12:12;20.90;99.90
7814;DHT22;3952;48.364;16.022;2023-07-13T03:14:39;20.90;99.90
7814;DHT22;3952;48.364;16.022;2023-07-13T03:17:06;20.80;99.90
7814;DHT22;3952;48.364;16.022;2023-07-13T03:19:33;20.80;99.90
7814;DHT22;3952;48.364;16.022;2023-07-13T03:22:00;20.80;99.90
7814;DHT22;3952;48.364;16.022;2023-07-13T03:24:27;20.70;99.90
7814;DHT22;3952;48.364;16.022;2023-07-13T03:26:56;20.70;99.90
7814;DHT22;3952;48.364;16.022;2023-07-13T03:29:23;20.60;99.90
7814;DHT22;3952;48.364;16.022;2023-07-13T03:31:50;20.60;99.90
7814;DHT22;3952;48.364;16.022;2023-07-13T03:34:17;20.60;99.90
7814;DHT22;3952;48.364;16.022;2023-07-13T03:36:45;20.50;99.90
7814;DHT22;3952;48.364;16.022;2023-07-13T03:39:12;20.50;99.90
7814;DHT22;3952;48.364;16.022;2023-07-13T03:41:39;20.40;99.90
7814;DHT22;3952;48.364;16.022;2023-07-13T03:44:08;20.40;99.90
7814;DHT22;3952;48.364;16.022;2023-07-13T03:46:35;20.40;99.90
7814;DHT22;3952;48.364;16.022;2023-07-13T03:49:05;20.40;99.90
7814;DHT22;3952;48.364;16.022;2023-07-13T03:51:32;20.40;99.90
7814;DHT22;3952;48.364;16.022;2023-07-13T03:54:00;20.40;99.90
7814;DHT22;3952;48.364;16.022;2023-07-13T03:56:28;20.40;99.90
7814;DHT22;3952;48.364;16.022;2023-07-13T03:58:56;20.40;99.90
7814;DHT22;3952;48.364;16.022;2023-07-13T04:01:25;20.40;99.90
7814;DHT22;3952;48.364;16.022;2023-07-13T04:03:52;20.40;99.90
7814;DHT22;3952;48.364;16.022;2023-07-13T04:06:21;20.30;99.90
7814;DHT22;3952;48.364;16.022;2023-07-13T04:08:51;20.30;99.90
7814;DHT22;3952;48.364;16.022;2023-07-13T04:11:20;20.30;99.90
7814;DHT22;3952;48.364;16.022;2023-07-13T04:13:47;20.30;99.90
7814;DHT22;3952;48.364;16.022;2023-07-13T04:16:15;20.30;99.90
7814;DHT22;3952;48.364;16.022;2023-07-13T04:18:45;20.30;99.90
7814;DHT22;3952;48.364;16.022;2023-07-13T04:21:12;20.30;99.90
7814;DHT22;3952;48.364;16.022;2023-07-13T04:23:40;20.30;99.90
7814;DHT22;3952;48.364;16.022;2023-07-13T04:26:07;20.30;99.90
7814;DHT22;3952;48.364;16.022;2023-07-13T04:28:34;20.30;99.90
7814;DHT22;3952;48.364;16.022;2023-07-13T04:31:02;20.20;99.90
7814;DHT22;3952;48.364;16.022;2023-07-13T04:33:29;20.20;99.90
7814;DHT22;3952;48.364;16.022;2023-07-13T04:35:57;20.20;99.90
7814;DHT22;3952;48.364;16.022;2023-07-13T04:38:26;20.20;99.90
7814;DHT22;3952;48.364;16.022;2023-07-13T04:40:55;20.10;99.90
7814;DHT22;3952;48.364;16.022;2023-07-13T04:43:23;20.20;99.90
7814;DHT22;3952;48.364;16.022;2023-07-13T04:45:51;20.20;99.90
7814;DHT22;3952;48.364;16.022;2023-07-13T04:48:18;20.20;99.90
7814;DHT22;3952;48.364;16.022;2023-07-13T04:50:46;20.20;99.90
7814;DHT22;3952;48.364;16.022;2023-07-13T04:53:15;20.20;99.90
7814;DHT22;3952;48.364;16.022;2023-07-13T04:55:42;20.20;99.90
7814;DHT22;3952;48.364;16.022;2023-07-13T04:58:09;20.20;99.90
7814;DHT22;3952;48.364;16.022;2023-07-13T05:00:36;20.30;99.90
7814;DHT22;3952;48.364;16.022;2023-07-13T05:03:03;20.30;99.90
7814;DHT22;3952;48.364;16.022;2023-07-13T05:05:31;20.30;99.90
7814;DHT22;3952;48.364;16.022;2023-07-13T05:07:59;20.30;99.90
7814;DHT22;3952;48.364;16.022;2023-07-13T05:10:28;20.30;99.90
7814;DHT22;3952;48.364;16.022;2023-07-13T05:12:55;20.30;99.90
7814;DHT22;3952;48.364;16.022;2023-07-13T05:15:23;20.30;99.90
7814;DHT22;3952;48.364;16.022;2023-07-13T05:17:51;20.30;99.90
7814;DHT22;3952;48.364;16.022;2023-07-13T05:20:19;20.30;99.90
7814;DHT22;3952;48.364;16.022;2023-07-13T05:22:46;20.30;99.90
7814;DHT22;3952;48.364;16.022;2023-07-13T05:25:14;20.30;99.90
7814;DHT22;3952;48.364;16.022;2023-07-13T05:27:43;20.30;99.90
7814;DHT22;3952;48.364;16.022;2023-07-13T05:30:11;20.40;99.90
7814;DHT22;3952;48.364;16.022;2023-07-13T05:32:39;20.50;99.90
7814;DHT22;3952;48.364;16.022;2023-07-13T05:35:07;20.50;99.90
7814;DHT22;3952;48.364;16.022;2023-07-13T05:37:34;20.60;99.90
7814;DHT22;3952;48.364;16.022;2023-07-13T05:40:02;20.60;99.90
7814;DHT22;3952;48.364;16.022;2023-07-13T05:42:30;20.60;99.90
7814;DHT22;3952;48.364;16.022;2023-07-13T05:44:59;20.60;99.90
7814;DHT22;3952;48.364;16.022;2023-07-13T05:47:26;20.60;99.90
7814;DHT22;3952;48.364;16.022;2023-07-13T05:49:54;20.60;99.90
7814;DHT22;3952;48.364;16.022;2023-07-13T05:52:21;20.60;99.90
7814;DHT22;3952;48.364;16.022;2023-07-13T05:54:48;20.70;99.90
7814;DHT22;3952;48.364;16.022;2023-07-13T05:57:15;20.60;99.90
7814;DHT22;3952;48.364;16.022;2023-07-13T05:59:42;20.60;99.90
7814;DHT22;3952;48.364;16.022;2023-07-13T06:02:11;20.60;99.90
7814;DHT22;3952;48.364;16.022;2023-07-13T06:04:38;20.60;99.90
7814;DHT22;3952;48.364;16.022;2023-07-13T06:07:05;20.50;99.90
7814;DHT22;3952;48.364;16.022;2023-07-13T06:09:32;20.50;99.90
7814;DHT22;3952;48.364;16.022;2023-07-13T06:11:59;20.50;99.90
7814;DHT22;3952;48.364;16.022;2023-07-13T06:14:26;20.50;99.90
7814;DHT22;3952;48.364;16.022;2023-07-13T06:16:54;20.50;99.90
7814;DHT22;3952;48.364;16.022;2023-07-13T06:19:22;20.50;99.90
7814;DHT22;3952;48.364;16.022;2023-07-13T06:21:49;20.50;99.90
7814;DHT22;3952;48.364;16.022;2023-07-13T06:24:17;20.50;99.90
7814;DHT22;3952;48.364;16.022;2023-07-13T06:26:44;20.50;99.90
7814;DHT22;3952;48.364;16.022;2023-07-13T06:29:11;20.50;99.90
7814;DHT22;3952;48.364;16.022;2023-07-13T06:31:38;20.50;99.90
7814;DHT22;3952;48.364;16.022;2023-07-13T06:34:05;20.50;99.90
7814;DHT22;3952;48.364;16.022;2023-07-13T06:36:34;20.50;99.90
7814;DHT22;3952;48.364;16.022;2023-07-13T06:39:02;20.50;99.90
7814;DHT22;3952;48.364;16.022;2023-07-13T06:41:29;20.50;99.90
7814;DHT22;3952;48.364;16.022;2023-07-13T06:43:56;20.50;99.90
7814;DHT22;3952;48.364;16.022;2023-07-13T06:46:24;20.50;99.90
7814;DHT22;3952;48.364;16.022;2023-07-13T06:48:51;20.60;99.90
7814;DHT22;3952;48.364;16.022;2023-07-13T06:51:18;20.60;99.90
7814;DHT22;3952;48.364;16.022;2023-07-13T06:53:46;20.60;99.90
7814;DHT22;3952;48.364;16.022;2023-07-13T06:56:13;20.60;99.90
7814;DHT22;3952;48.364;16.022;2023-07-13T06:58:41;20.60;99.90
7814;DHT22;3952;48.364;16.022;2023-07-13T07:01:09;20.70;99.90
7814;DHT22;3952;48.364;16.022;2023-07-13T07:03:36;20.70;99.90
7814;DHT22;3952;48.364;16.022;2023-07-13T07:06:16;20.80;99.90
7814;DHT22;3952;48.364;16.022;2023-07-13T07:08:46;20.80;99.90
7814;DHT22;3952;48.364;16.022;2023-07-13T07:11:16;20.90;99.90
7814;DHT22;3952;48.364;16.022;2023-07-13T07:13:44;20.90;99.90
7814;DHT22;3952;48.364;16.022;2023-07-13T07:16:11;20.90;99.90
7814;DHT22;3952;48.364;16.022;2023-07-13T07:18:38;20.90;99.90
7814;DHT22;3952;48.364;16.022;2023-07-13T07:21:05;20.90;99.90
7814;DHT22;3952;48.364;16.022;2023-07-13T07:23:33;21.00;99.90
7814;DHT22;3952;48.364;16.022;2023-07-13T07:26:01;21.00;99.90
7814;DHT22;3952;48.364;16.022;2023-07-13T07:28:29;21.00;99.90
7814;DHT22;3952;48.364;16.022;2023-07-13T07:30:57;21.10;99.90
7814;DHT22;3952;48.364;16.022;2023-07-13T07:33:25;21.10;99.90
7814;DHT22;3952;48.364;16.022;2023-07-13T07:35:52;21.10;99.90
7814;DHT22;3952;48.364;16.022;2023-07-13T07:38:20;21.10;99.90
7814;DHT22;3952;48.364;16.022;2023-07-13T07:40:47;21.20;99.90
7814;DHT22;3952;48.364;16.022;2023-07-13T07:43:15;21.20;99.90
7814;DHT22;3952;48.364;16.022;2023-07-13T07:45:44;21.20;99.90
7814;DHT22;3952;48.364;16.022;2023-07-13T07:48:12;21.20;99.90
7814;DHT22;3952;48.364;16.022;2023-07-13T07:50:39;21.20;99.90
7814;DHT22;3952;48.364;16.022;2023-07-13T07:53:07;21.20;99.90
7814;DHT22;3952;48.364;16.022;2023-07-13T07:55:36;21.20;99.90
7814;DHT22;3952;48.364;16.022;2023-07-13T07:58:04;21.20;99.90
7814;DHT22;3952;48.364;16.022;2023-07-13T08:00:33;21.20;99.90
7814;DHT22;3952;48.364;16.022;2023-07-13T08:03:01;21.30;99.90
7814;DHT22;3952;48.364;16.022;2023-07-13T08:05:29;21.30;99.90
7814;DHT22;3952;48.364;16.022;2023-07-13T08:07:56;21.30;99.90
7814;DHT22;3952;48.364;16.022;2023-07-13T08:10:23;21.40;99.90
7814;DHT22;3952;48.364;16.022;2023-07-13T08:12:50;21.50;99.90
7814;DHT22;3952;48.364;16.022;2023-07-13T08:15:18;21.50;99.90
7814;DHT22;3952;48.364;16.022;2023-07-13T08:17:48;21.60;99.90
7814;DHT22;3952;48.364;16.022;2023-07-13T08:20:15;21.80;99.90
7814;DHT22;3952;48.364;16.022;2023-07-13T08:22:43;21.90;99.90
7814;DHT22;3952;48.364;16.022;2023-07-13T08:25:10;22.00;99.90
7814;DHT22;3952;48.364;16.022;2023-07-13T08:27:37;22.10;99.90
7814;DHT22;3952;48.364;16.022;2023-07-13T08:30:05;22.20;99.90
7814;DHT22;3952;48.364;16.022;2023-07-13T08:32:34;22.40;99.90
7814;DHT22;3952;48.364;16.022;2023-07-13T08:35:03;22.50;99.90
7814;DHT22;3952;48.364;16.022;2023-07-13T08:37:30;22.60;99.90
7814;DHT22;3952;48.364;16.022;2023-07-13T08:39:57;22.70;99.90
7814;DHT22;3952;48.364;16.022;2023-07-13T08:42:36;22.80;99.90
7814;DHT22;3952;48.364;16.022;2023-07-13T08:45:12;23.00;99.90
7814;DHT22;3952;48.364;16.022;2023-07-13T08:47:42;23.30;99.90
7814;DHT22;3952;48.364;16.022;2023-07-13T08:50:17;23.50;99.90
7814;DHT22;3952;48.364;16.022;2023-07-13T08:52:45;23.70;99.90
7814;DHT22;3952;48.364;16.022;2023-07-13T08:55:15;23.80;99.90
7814;DHT22;3952;48.364;16.022;2023-07-13T08:57:48;23.80;99.90
7814;DHT22;3952;48.364;16.022;2023-07-13T09:00:17;23.90;99.90
7814;DHT22;3952;48.364;16.022;2023-07-13T09:02:48;23.90;99.90
7814;DHT22;3952;48.364;16.022;2023-07-13T09:05:26;23.90;99.90
7814;DHT22;3952;48.364;16.022;2023-07-13T09:08:08;24.00;99.90
7814;DHT22;3952;48.364;16.022;2023-07-13T09:10:44;24.10;99.90
7814;DHT22;3952;48.364;16.022;2023-07-13T09:13:23;24.20;99.90
7814;DHT22;3952;48.364;16.022;2023-07-13T09:15:54;24.30;99.90
7814;DHT22;3952;48.364;16.022;2023-07-13T09:18:26;24.30;99.90
7814;DHT22;3952;48.364;16.022;2023-07-13T09:20:58;24.40;99.90
7814;DHT22;3952;48.364;16.022;2023-07-13T09:23:28;24.40;99.90
7814;DHT22;3952;48.364;16.022;2023-07-13T09:26:04;24.40;99.90
7814;DHT22;3952;48.364;16.022;2023-07-13T09:28:37;24.50;99.90
7814;DHT22;3952;48.364;16.022;2023-07-13T09:31:07;24.50;99.90
7814;DHT22;3952;48.364;16.022;2023-07-13T09:33:35;24.50;99.90
7814;DHT22;3952;48.364;16.022;2023-07-13T09:36:17;24.60;99.90
7814;DHT22;3952;48.364;16.022;2023-07-13T09:38:45;24.70;99.90
7814;DHT22;3952;48.364;16.022;2023-07-13T09:41:21;24.70;99.90
7814;DHT22;3952;48.364;16.022;2023-07-13T09:44:18;24.70;99.90
7814;DHT22;3952;48.364;16.022;2023-07-13T09:46:54;24.80;99.90
7814;DHT22;3952;48.364;16.022;2023-07-13T09:49:23;24.90;99.90
7814;DHT22;3952;48.364;16.022;2023-07-13T09:51:58;25.00;99.90
7814;DHT22;3952;48.364;16.022;2023-07-13T09:54:27;25.30;99.90
7814;DHT22;3952;48.364;16.022;2023-07-13T09:56:55;25.50;99.90
7814;DHT22;3952;48.364;16.022;2023-07-13T09:59:26;25.80;99.90
7814;DHT22;3952;48.364;16.022;2023-07-13T10:01:53;26.00;99.90
7814;DHT22;3952;48.364;16.022;2023-07-13T10:04:29;26.20;99.90
7814;DHT22;3952;48.364;16.022;2023-07-13T10:07:07;26.30;99.90
7814;DHT22;3952;48.364;16.022;2023-07-13T10:09:35;26.40;99.90
7814;DHT22;3952;48.364;16.022;2023-07-13T10:12:02;26.60;99.90
7814;DHT22;3952;48.364;16.022;2023-07-13T10:14:29;26.70;99.90
7814;DHT22;3952;48.364;16.022;2023-07-13T10:16:59;26.80;99.90
7814;DHT22;3952;48.364;16.022;2023-07-13T10:19:31;26.90;99.90
7814;DHT22;3952;48.364;16.022;2023-07-13T10:22:01;26.90;99.90
7814;DHT22;3952;48.364;16.022;2023-07-13T10:24:32;26.70;99.90
7814;DHT22;3952;48.364;16.022;2023-07-13T10:27:10;26.60;99.90
7814;DHT22;3952;48.364;16.022;2023-07-13T10:29:44;26.50;99.90
7814;DHT22;3952;48.364;16.022;2023-07-13T10:32:13;26.40;99.90
7814;DHT22;3952;48.364;16.022;2023-07-13T10:34:40;26.40;99.90
7814;DHT22;3952;48.364;16.022;2023-07-13T10:37:16;26.30;99.90
7814;DHT22;3952;48.364;16.022;2023-07-13T10:39:48;26.20;99.90
7814;DHT22;3952;48.364;16.022;2023-07-13T10:42:28;26.10;99.90
7814;DHT22;3952;48.364;16.022;2023-07-13T10:44:56;26.00;99.90
7814;DHT22;3952;48.364;16.022;2023-07-13T10:47:24;26.00;99.90
7814;DHT22;3952;48.364;16.022;2023-07-13T10:49:56;25.90;99.90
7814;DHT22;3952;48.364;16.022;2023-07-13T10:52:46;25.90;99.90
7814;DHT22;3952;48.364;16.022;2023-07-13T10:55:34;26.00;99.90
7814;DHT22;3952;48.364;16.022;2023-07-13T10:58:10;26.10;99.90
7814;DHT22;3952;48.364;16.022;2023-07-13T11:00:46;26.10;99.90
7814;DHT22;3952;48.364;16.022;2023-07-13T11:03:17;26.00;99.90
7814;DHT22;3952;48.364;16.022;2023-07-13T11:05:48;26.00;99.90
7814;DHT22;3952;48.364;16.022;2023-07-13T11:08:20;26.10;99.90
7814;DHT22;3952;48.364;16.022;2023-07-13T11:10:55;26.30;99.90
7814;DHT22;3952;48.364;16.022;2023-07-13T11:13:56;26.50;99.90
7814;DHT22;3952;48.364;16.022;2023-07-13T11:16:44;26.80;99.90
7814;DHT22;3952;48.364;16.022;2023-07-13T11:19:39;27.00;99.90
7814;DHT22;3952;48.364;16.022;2023-07-13T11:22:15;27.10;99.90
7814;DHT22;3952;48.364;16.022;2023-07-13T11:24:58;27.20;99.90
7814;DHT22;3952;48.364;16.022;2023-07-13T11:27:38;27.20;99.90
7814;DHT22;3952;48.364;16.022;2023-07-13T11:30:24;27.30;99.90
7814;DHT22;3952;48.364;16.022;2023-07-13T11:33:02;27.30;99.90
7814;DHT22;3952;48.364;16.022;2023-07-13T11:35:36;27.30;99.90
7814;DHT22;3952;48.364;16.022;2023-07-13T11:38:13;27.30;99.90
7814;DHT22;3952;48.364;16.022;2023-07-13T11:40:44;27.30;99.90
7814;DHT22;3952;48.364;16.022;2023-07-13T11:43:15;27.30;99.90
7814;DHT22;3952;48.364;16.022;2023-07-13T11:45:43;27.30;99.90
7814;DHT22;3952;48.364;16.022;2023-07-13T11:48:22;27.20;99.90
7814;DHT22;3952;48.364;16.022;2023-07-13T11:50:53;27.30;99.90
7814;DHT22;3952;48.364;16.022;2023-07-13T11:53:23;27.40;99.90
7814;DHT22;3952;48.364;16.022;2023-07-13T11:55:52;27.40;99.90
7814;DHT22;3952;48.364;16.022;2023-07-13T11:58:23;27.40;99.90
7814;DHT22;3952;48.364;16.022;2023-07-13T12:00:52;27.40;99.90
7814;DHT22;3952;48.364;16.022;2023-07-13T12:03:21;27.40;99.90
7814;DHT22;3952;48.364;16.022;2023-07-13T12:05:58;27.40;99.90
7814;DHT22;3952;48.364;16.022;2023-07-13T12:08:26;27.50;99.90
7814;DHT22;3952;48.364;16.022;2023-07-13T12:11:01;27.60;99.90
7814;DHT22;3952;48.364;16.022;2023-07-13T12:13:37;27.80;99.90
7814;DHT22;3952;48.364;16.022;2023-07-13T12:16:14;27.90;99.90
7814;DHT22;3952;48.364;16.022;2023-07-13T12:18:43;28.00;99.90
7814;DHT22;3952;48.364;16.022;2023-07-13T12:21:17;28.10;99.90
7814;DHT22;3952;48.364;16.022;2023-07-13T12:23:47;28.10;99.90
7814;DHT22;3952;48.364;16.022;2023-07-13T12:26:17;28.10;99.90
7814;DHT22;3952;48.364;16.022;2023-07-13T12:28:48;28.10;99.90
7814;DHT22;3952;48.364;16.022;2023-07-13T12:31:25;28.10;99.90
7814;DHT22;3952;48.364;16.022;2023-07-13T12:33:57;28.00;99.90
7814;DHT22;3952;48.364;16.022;2023-07-13T12:36:25;27.90;99.90
7814;DHT22;3952;48.364;16.022;2023-07-13T12:38:53;27.80;99.90
7814;DHT22;3952;48.364;16.022;2023-07-13T12:41:20;27.70;99.90
7814;DHT22;3952;48.364;16.022;2023-07-13T12:43:50;27.60;99.90
7814;DHT22;3952;48.364;16.022;2023-07-13T12:46:20;27.50;99.90
7814;DHT22;3952;48.364;16.022;2023-07-13T12:48:49;27.60;99.90
7814;DHT22;3952;48.364;16.022;2023-07-13T12:51:17;27.70;99.90
7814;DHT22;3952;48.364;16.022;2023-07-13T12:53:49;27.80;99.90
7814;DHT22;3952;48.364;16.022;2023-07-13T12:56:22;27.90;99.90
7814;DHT22;3952;48.364;16.022;2023-07-13T12:58:57;28.00;99.90
7814;DHT22;3952;48.364;16.022;2023-07-13T13:01:27;28.00;99.90
7814;DHT22;3952;48.364;16.022;2023-07-13T13:03:55;28.00;99.90
7814;DHT22;3952;48.364;16.022;2023-07-13T13:06:25;28.00;99.90
7814;DHT22;3952;48.364;16.022;2023-07-13T13:08:54;28.00;99.90
7814;DHT22;3952;48.364;16.022;2023-07-13T13:11:23;27.90;99.90
7814;DHT22;3952;48.364;16.022;2023-07-13T13:13:53;27.90;99.90
7814;DHT22;3952;48.364;16.022;2023-07-13T13:16:23;27.90;99.90
7814;DHT22;3952;48.364;16.022;2023-07-13T13:18:53;28.00;99.90
7814;DHT22;3952;48.364;16.022;2023-07-13T13:21:23;28.00;99.90
7814;DHT22;3952;48.364;16.022;2023-07-13T13:23:52;28.00;99.90
7814;DHT22;3952;48.364;16.022;2023-07-13T13:26:21;28.00;99.90
7814;DHT22;3952;48.364;16.022;2023-07-13T13:28:49;27.90;99.90
7814;DHT22;3952;48.364;16.022;2023-07-13T13:31:17;27.90;99.90
7814;DHT22;3952;48.364;16.022;2023-07-13T13:33:45;28.00;99.90
7814;DHT22;3952;48.364;16.022;2023-07-13T13:36:20;28.00;99.90
7814;DHT22;3952;48.364;16.022;2023-07-13T13:38:49;28.00;99.90
7814;DHT22;3952;48.364;16.022;2023-07-13T13:41:16;27.90;99.90
7814;DHT22;3952;48.364;16.022;2023-07-13T13:43:44;27.90;99.90
7814;DHT22;3952;48.364;16.022;2023-07-13T13:46:15;27.80;99.90
7814;DHT22;3952;48.364;16.022;2023-07-13T13:48:45;27.80;99.90
7814;DHT22;3952;48.364;16.022;2023-07-13T13:51:15;27.70;99.90
7814;DHT22;3952;48.364;16.022;2023-07-13T13:53:42;27.60;99.90
7814;DHT22;3952;48.364;16.022;2023-07-13T13:56:09;27.50;99.90
7814;DHT22;3952;48.364;16.022;2023-07-13T13:58:37;27.50;99.90
7814;DHT22;3952;48.364;16.022;2023-07-13T14:01:04;27.50;99.90
7814;DHT22;3952;48.364;16.022;2023-07-13T14:03:34;27.50;99.90
7814;DHT22;3952;48.364;16.022;2023-07-13T14:06:02;27.40;99.90
7814;DHT22;3952;48.364;16.022;2023-07-13T14:08:30;27.40;99.90
7814;DHT22;3952;48.364;16.022;2023-07-13T14:10:57;27.40;99.90
7814;DHT22;3952;48.364;16.022;2023-07-13T14:13:27;27.50;99.90
7814;DHT22;3952;48.364;16.022;2023-07-13T14:15:55;27.50;99.90
7814;DHT22;3952;48.364;16.022;2023-07-13T14:18:22;27.60;99.90
7814;DHT22;3952;48.364;16.022;2023-07-13T14:20:49;27.70;99.90
7814;DHT22;3952;48.364;16.022;2023-07-13T14:23:19;27.70;99.90
7814;DHT22;3952;48.364;16.022;2023-07-13T14:25:47;27.70;99.90
7814;DHT22;3952;48.364;16.022;2023-07-13T14:28:20;27.70;99.90
7814;DHT22;3952;48.364;16.022;2023-07-13T14:30:49;27.80;99.90
7814;DHT22;3952;48.364;16.022;2023-07-13T14:33:17;27.90;99.90
7814;DHT22;3952;48.364;16.022;2023-07-13T14:35:44;27.90;99.90
7814;DHT22;3952;48.364;16.022;2023-07-13T14:38:13;28.00;99.90
7814;DHT22;3952;48.364;16.022;2023-07-13T14:40:43;28.00;99.90
7814;DHT22;3952;48.364;16.022;2023-07-13T14:43:11;28.00;99.90
7814;DHT22;3952;48.364;16.022;2023-07-13T14:45:41;27.90;99.90
7814;DHT22;3952;48.364;16.022;2023-07-13T14:48:16;27.80;99.90
7814;DHT22;3952;48.364;16.022;2023-07-13T14:50:44;27.70;99.90
7814;DHT22;3952;48.364;16.022;2023-07-13T14:53:12;27.60;99.90
7814;DHT22;3952;48.364;16.022;2023-07-13T14:55:40;27.60;99.90
7814;DHT22;3952;48.364;16.022;2023-07-13T14:58:09;27.60;99.90
7814;DHT22;3952;48.364;16.022;2023-07-13T15:00:37;27.50;99.90
7814;DHT22;3952;48.364;16.022;2023-07-13T15:03:04;27.00;99.90
7814;DHT22;3952;48.364;16.022;2023-07-13T15:05:33;27.30;99.90
7814;DHT22;3952;48.364;16.022;2023-07-13T15:08:01;27.20;99.90
7814;DHT22;3952;48.364;16.022;2023-07-13T15:10:30;27.20;99.90
7814;DHT22;3952;48.364;16.022;2023-07-13T15:13:00;27.10;99.90
7814;DHT22;3952;48.364;16.022;2023-07-13T15:15:32;27.00;99.90
7814;DHT22;3952;48.364;16.022;2023-07-13T15:18:02;26.90;99.90
7814;DHT22;3952;48.364;16.022;2023-07-13T15:20:32;26.90;99.90
7814;DHT22;3952;48.364;16.022;2023-07-13T15:23:01;26.70;99.90
7814;DHT22;3952;48.364;16.022;2023-07-13T15:25:30;26.60;99.90
7814;DHT22;3952;48.364;16.022;2023-07-13T15:27:59;26.50;99.90
7814;DHT22;3952;48.364;16.022;2023-07-13T15:30:31;26.40;99.90
7814;DHT22;3952;48.364;16.022;2023-07-13T15:33:13;26.30;99.90
7814;DHT22;3952;48.364;16.022;2023-07-13T15:35:43;26.20;99.90
7814;DHT22;3952;48.364;16.022;2023-07-13T15:38:17;26.00;99.90
7814;DHT22;3952;48.364;16.022;2023-07-13T15:40:44;25.90;99.90
7814;DHT22;3952;48.364;16.022;2023-07-13T15:43:12;25.80;99.90
7814;DHT22;3952;48.364;16.022;2023-07-13T15:45:41;25.80;99.90
7814;DHT22;3952;48.364;16.022;2023-07-13T15:48:13;25.70;99.90
7814;DHT22;3952;48.364;16.022;2023-07-13T15:50:45;25.60;99.90
7814;DHT22;3952;48.364;16.022;2023-07-13T15:53:15;25.60;99.90
7814;DHT22;3952;48.364;16.022;2023-07-13T15:55:45;25.50;99.90
7814;DHT22;3952;48.364;16.022;2023-07-13T15:58:13;25.40;99.90
7814;DHT22;3952;48.364;16.022;2023-07-13T16:00:42;25.40;99.90
7814;DHT22;3952;48.364;16.022;2023-07-13T16:03:10;25.30;99.90
7814;DHT22;3952;48.364;16.022;2023-07-13T16:05:38;25.20;99.90